Time;durP1;ratioP1;P1;durP2;ratioP2;P2;SDS_P1;SDS_P2;PMS_P1;PMS_P2;Temp;Humidity;BMP_temperature;BMP_pressure;BME280_temperature;BME280_humidity;BME280_pressure;Samples;Min_cycle;Max_cycle;Signal;HPM_P1;HPM_P2
2022/10/25 00:01:15;;;;;;;38.43;26.63;;;12.60;99.90;;;;;;5053821;28;20249;-69
2022/10/25 00:03:41;;;;;;;43.07;26.53;;;12.60;99.90;;;;;;5044321;28;20198;-70
2022/10/25 00:06:09;;;;;;;43.40;28.43;;;12.60;99.90;;;;;;5033815;28;20206;-71
2022/10/25 00:08:36;;;;;;;47.63;28.07;;;12.60;99.90;;;;;;5033549;28;20238;-70
2022/10/25 00:11:03;;;;;;;41.67;26.97;;;12.60;99.90;;;;;;5033823;28;20212;-70
2022/10/25 00:13:30;;;;;;;49.63;29.57;;;12.60;99.90;;;;;;5036215;28;20201;-70
2022/10/25 00:15:57;;;;;;;40.63;27.27;;;12.60;99.90;;;;;;5047539;28;20214;-70
2022/10/25 00:18:25;;;;;;;45.73;28.20;;;12.50;99.90;;;;;;5048326;28;20571;-70
2022/10/25 00:20:53;;;;;;;52.07;30.60;;;12.50;99.90;;;;;;5038095;28;20230;-70
2022/10/25 00:23:20;;;;;;;42.60;26.97;;;12.50;99.90;;;;;;5046501;28;20208;-69
2022/10/25 00:25:46;;;;;;;42.93;28.23;;;12.50;99.90;;;;;;5046571;28;20218;-71
2022/10/25 00:28:13;;;;;;;38.03;25.63;;;12.50;99.90;;;;;;5046230;28;20206;-66
2022/10/25 00:30:40;;;;;;;39.67;25.80;;;12.40;99.90;;;;;;5062401;28;20197;-68
2022/10/25 00:33:07;;;;;;;40.37;26.83;;;12.50;99.90;;;;;;5072649;28;20211;-69
2022/10/25 00:35:36;;;;;;;38.73;26.17;;;12.50;99.90;;;;;;5055704;28;20197;-69
2022/10/25 00:38:03;;;;;;;40.20;26.30;;;12.50;99.90;;;;;;5052629;28;20212;-68
2022/10/25 00:40:30;;;;;;;40.30;25.93;;;12.50;99.90;;;;;;5052680;28;20312;-68
2022/10/25 00:42:57;;;;;;;41.20;26.13;;;12.50;99.90;;;;;;5048191;28;20604;-68
2022/10/25 00:45:26;;;;;;;43.37;26.93;;;12.50;99.90;;;;;;5032529;28;20296;-67
2022/10/25 00:48:00;;;;;;;41.77;25.57;;;12.50;99.90;;;;;;5068771;28;20211;-68
2022/10/25 00:50:41;;;;;;;41.03;27.67;;;12.50;99.90;;;;;;5072576;28;20521;-69
2022/10/25 00:53:12;;;;;;;38.33;27.03;;;12.50;99.90;;;;;;5072225;28;20256;-68
2022/10/25 00:55:44;;;;;;;42.10;27.17;;;12.50;99.90;;;;;;5072449;28;20196;-68
2022/10/25 00:58:16;;;;;;;41.17;26.43;;;12.50;99.90;;;;;;5071819;28;20365;-67
2022/10/25 01:00:45;;;;;;;39.50;27.27;;;12.40;99.90;;;;;;5049303;28;20305;-69
2022/10/25 01:03:13;;;;;;;39.30;24.70;;;12.40;99.90;;;;;;5031776;28;20206;-69
2022/10/25 01:05:42;;;;;;;39.27;24.57;;;12.40;99.90;;;;;;5032097;28;20209;-67
2022/10/25 01:08:09;;;;;;;44.87;27.07;;;12.40;99.90;;;;;;5031817;28;20642;-67
2022/10/25 01:10:37;;;;;;;43.10;26.60;;;12.40;99.90;;;;;;5032658;28;20675;-69
2022/10/25 01:13:04;;;;;;;39.40;26.50;;;12.40;99.90;;;;;;5050782;28;20208;-67
2022/10/25 01:15:40;;;;;;;41.20;26.57;;;12.40;99.90;;;;;;5052350;28;20212;-67
2022/10/25 01:18:13;;;;;;;40.50;26.20;;;12.40;99.90;;;;;;5037854;28;20582;-69
2022/10/25 01:21:25;;;;;;;35.63;23.77;;;12.40;99.90;;;;;;5032036;28;20214;-67
2022/10/25 01:24:11;;;;;;;43.40;27.00;;;12.40;99.90;;;;;;5054982;28;20200;-67
2022/10/25 01:27:09;;;;;;;40.33;26.17;;;12.40;99.90;;;;;;5071683;28;20236;-69
2022/10/25 01:30:05;;;;;;;40.03;26.20;;;12.30;99.90;;;;;;5063298;28;20211;-68
2022/10/25 01:32:43;;;;;;;42.47;27.20;;;12.30;99.90;;;;;;5071966;28;20189;-68
2022/10/25 01:35:16;;;;;;;43.37;26.73;;;12.30;99.90;;;;;;5041915;28;20209;-67
2022/10/25 01:38:10;;;;;;;50.13;30.10;;;12.20;99.90;;;;;;5031833;28;20193;-68
2022/10/25 01:40:48;;;;;;;50.23;30.47;;;12.10;99.90;;;;;;5031217;28;20230;-68
2022/10/25 01:43:23;;;;;;;48.33;28.47;;;12.00;99.90;;;;;;5031339;28;20201;-67
2022/10/25 01:45:56;;;;;;;45.37;29.57;;;11.90;99.90;;;;;;5032004;28;20555;-67
2022/10/25 01:48:29;;;;;;;48.30;29.67;;;12.00;99.90;;;;;;5032030;28;20202;-68
2022/10/25 01:51:04;;;;;;;54.13;32.07;;;11.90;99.90;;;;;;5032202;28;20210;-68
2022/10/25 01:53:30;;;;;;;46.47;30.53;;;11.90;99.90;;;;;;5031878;28;20194;-67
2022/10/25 01:56:00;;;;;;;59.03;32.23;;;11.90;99.90;;;;;;5031584;28;20224;-68
2022/10/25 01:58:37;;;;;;;61.20;33.87;;;11.80;99.90;;;;;;5032026;28;20205;-68
2022/10/25 02:01:15;;;;;;;58.00;31.23;;;11.80;99.90;;;;;;5031381;28;20206;-68
2022/10/25 02:03:48;;;;;;;48.93;31.30;;;11.70;99.90;;;;;;5031790;28;20190;-67
2022/10/25 02:06:25;;;;;;;48.23;30.07;;;11.70;99.90;;;;;;5035863;28;20213;-69
2022/10/25 02:08:59;;;;;;;48.40;30.40;;;11.70;99.90;;;;;;5038535;28;20209;-67
2022/10/25 02:11:28;;;;;;;47.77;29.57;;;11.70;99.90;;;;;;5041798;28;20217;-69
2022/10/25 02:14:05;;;;;;;51.33;31.90;;;11.70;99.90;;;;;;5046806;28;20655;-70
2022/10/25 02:16:36;;;;;;;47.30;29.77;;;11.70;99.90;;;;;;5035531;28;20652;-67
2022/10/25 02:19:07;;;;;;;51.03;30.13;;;11.70;99.90;;;;;;5035395;28;20234;-68
2022/10/25 02:21:36;;;;;;;46.07;29.20;;;11.70;99.90;;;;;;5035196;28;20221;-68
2022/10/25 02:24:07;;;;;;;50.60;30.70;;;11.70;99.90;;;;;;5043548;28;20626;-68
2022/10/25 02:26:35;;;;;;;44.83;29.70;;;11.70;99.90;;;;;;5055551;28;20209;-69
2022/10/25 02:29:04;;;;;;;46.00;29.43;;;11.70;99.90;;;;;;5055370;28;20209;-69
2022/10/25 02:31:33;;;;;;;45.70;28.60;;;11.60;99.90;;;;;;5055405;28;20208;-67
2022/10/25 02:34:00;;;;;;;43.90;28.53;;;11.70;99.90;;;;;;5053934;28;20205;-67
2022/10/25 02:36:29;;;;;;;44.23;29.83;;;11.70;99.90;;;;;;5055013;28;20220;-68
2022/10/25 02:38:56;;;;;;;44.13;27.83;;;11.70;99.90;;;;;;5054968;28;20213;-70
2022/10/25 02:41:24;;;;;;;42.43;28.47;;;11.70;99.90;;;;;;5054851;28;20232;-67
2022/10/25 02:43:51;;;;;;;41.37;27.87;;;11.70;99.90;;;;;;5053769;28;20229;-69
2022/10/25 02:46:20;;;;;;;40.97;26.77;;;11.70;99.90;;;;;;5054995;28;20205;-67
2022/10/25 02:48:48;;;;;;;45.73;28.13;;;11.70;99.90;;;;;;5054309;28;20206;-68
2022/10/25 02:51:15;;;;;;;48.80;29.77;;;11.70;99.90;;;;;;5054912;28;20212;-70
2022/10/25 02:53:44;;;;;;;44.67;28.20;;;11.70;99.90;;;;;;5051744;28;20644;-68
2022/10/25 02:56:13;;;;;;;41.83;27.63;;;11.70;99.90;;;;;;5034594;28;20206;-69
2022/10/25 02:58:42;;;;;;;41.83;28.23;;;11.70;99.90;;;;;;5035043;28;20202;-67
2022/10/25 03:01:09;;;;;;;39.47;26.27;;;11.70;99.90;;;;;;5034619;28;20230;-67
2022/10/25 03:03:36;;;;;;;39.83;26.70;;;11.70;99.90;;;;;;5033731;28;20213;-68
2022/10/25 03:06:03;;;;;;;41.23;26.17;;;11.70;99.90;;;;;;5033788;28;20213;-67
2022/10/25 03:08:30;;;;;;;40.83;25.77;;;11.70;99.90;;;;;;5034331;28;20313;-67
2022/10/25 03:10:59;;;;;;;49.20;29.20;;;11.80;99.90;;;;;;5034200;28;20205;-69
2022/10/25 03:13:25;;;;;;;41.00;27.93;;;11.80;99.90;;;;;;5034585;28;20225;-68
2022/10/25 03:15:52;;;;;;;41.20;26.90;;;11.80;99.90;;;;;;5051390;28;20575;-70
2022/10/25 03:18:19;;;;;;;41.63;27.53;;;11.80;99.90;;;;;;5054754;28;20229;-68
2022/10/25 03:20:46;;;;;;;39.67;26.43;;;11.80;99.90;;;;;;5053882;28;20566;-69
2022/10/25 03:23:13;;;;;;;43.07;27.53;;;11.80;99.90;;;;;;5051824;28;20239;-69
2022/10/25 03:25:40;;;;;;;44.70;27.77;;;11.80;99.90;;;;;;5046603;28;20229;-69
2022/10/25 03:28:08;;;;;;;48.07;29.03;;;11.80;99.90;;;;;;5034285;28;20208;-68
2022/10/25 03:30:36;;;;;;;42.33;27.70;;;11.80;99.90;;;;;;5034435;28;20205;-67
2022/10/25 03:33:02;;;;;;;42.40;27.00;;;11.80;99.90;;;;;;5034398;28;20563;-67
2022/10/25 03:35:29;;;;;;;39.10;25.93;;;11.80;99.90;;;;;;5046092;28;20205;-68
2022/10/25 03:37:56;;;;;;;42.83;26.90;;;11.80;99.90;;;;;;5053452;28;20220;-69
2022/10/25 03:40:23;;;;;;;42.47;27.00;;;11.80;99.90;;;;;;5054191;28;20205;-68
2022/10/25 03:42:50;;;;;;;41.60;27.50;;;11.80;99.90;;;;;;5053344;28;20230;-68
2022/10/25 03:45:18;;;;;;;40.23;27.30;;;11.90;99.90;;;;;;5052415;28;20213;-68
2022/10/25 03:47:46;;;;;;;43.00;27.70;;;11.80;99.90;;;;;;5053623;28;20565;-68
2022/10/25 03:50:13;;;;;;;38.70;25.97;;;11.90;99.90;;;;;;5037352;28;20206;-68
2022/10/25 03:52:40;;;;;;;88.47;53.07;;;11.90;99.90;;;;;;5033171;28;20202;-69
2022/10/25 03:55:07;;;;;;;51.83;32.37;;;11.90;99.90;;;;;;5033697;28;20220;-68
2022/10/25 03:57:34;;;;;;;47.47;29.13;;;11.90;99.90;;;;;;5033780;28;20232;-69
2022/10/25 04:00:01;;;;;;;45.93;29.43;;;11.90;99.90;;;;;;5048034;28;20209;-67
2022/10/25 04:02:29;;;;;;;39.63;26.73;;;11.90;99.90;;;;;;5053739;28;20225;-68
2022/10/25 04:04:56;;;;;;;41.77;25.93;;;11.90;99.90;;;;;;5053081;28;20210;-68
2022/10/25 04:07:23;;;;;;;41.10;26.13;;;11.90;99.90;;;;;;5053101;28;20261;-68
2022/10/25 04:09:50;;;;;;;39.10;26.97;;;11.90;99.90;;;;;;5052227;28;20205;-68
2022/10/25 04:12:16;;;;;;;40.73;26.47;;;11.90;99.90;;;;;;5053439;28;20201;-69
2022/10/25 04:14:43;;;;;;;40.67;26.73;;;12.00;99.90;;;;;;5053113;28;20216;-68
2022/10/25 04:17:10;;;;;;;45.10;28.50;;;11.90;99.90;;;;;;5049345;28;20651;-67
2022/10/25 04:19:38;;;;;;;43.37;28.60;;;12.00;99.90;;;;;;5037374;28;20201;-68
2022/10/25 04:22:05;;;;;;;42.77;27.57;;;12.00;99.90;;;;;;5053235;28;20221;-68
2022/10/25 04:24:32;;;;;;;43.33;27.27;;;12.00;99.90;;;;;;5053118;28;20237;-68
2022/10/25 04:26:58;;;;;;;45.70;29.43;;;12.00;99.90;;;;;;5052867;28;20208;-69
2022/10/25 04:29:25;;;;;;;40.23;27.20;;;12.00;99.90;;;;;;5045187;28;20693;-67
2022/10/25 04:31:52;;;;;;;41.90;27.83;;;12.00;99.90;;;;;;5033508;28;20198;-70
2022/10/25 04:34:19;;;;;;;42.07;26.83;;;12.00;99.90;;;;;;5032747;28;20225;-67
2022/10/25 04:36:47;;;;;;;47.13;28.33;;;12.00;99.90;;;;;;5033231;28;20293;-69
2022/10/25 04:39:14;;;;;;;39.77;25.80;;;12.00;99.90;;;;;;5052402;28;20642;-71
2022/10/25 04:41:41;;;;;;;38.23;26.13;;;12.00;99.90;;;;;;5053635;28;20275;-68
2022/10/25 04:44:08;;;;;;;41.60;27.07;;;12.00;99.90;;;;;;5052481;28;20209;-68
2022/10/25 04:46:35;;;;;;;40.50;26.13;;;12.00;99.90;;;;;;5053127;28;20296;-68
2022/10/25 04:49:02;;;;;;;41.53;25.50;;;12.10;99.90;;;;;;5035640;28;20207;-68
2022/10/25 04:51:29;;;;;;;35.90;24.40;;;12.00;99.90;;;;;;5033346;28;20232;-67
2022/10/25 04:53:57;;;;;;;39.73;24.77;;;12.10;99.90;;;;;;5034106;28;20224;-68
2022/10/25 04:56:24;;;;;;;42.87;26.77;;;12.10;99.90;;;;;;5044852;28;20235;-69
2022/10/25 04:58:51;;;;;;;38.10;25.50;;;12.10;99.90;;;;;;5050825;28;20224;-68
2022/10/25 05:01:19;;;;;;;38.10;25.40;;;12.10;99.90;;;;;;5052640;28;20638;-71
2022/10/25 05:03:46;;;;;;;35.80;24.40;;;12.10;99.90;;;;;;5052964;28;20728;-71
2022/10/25 05:06:14;;;;;;;35.23;23.53;;;12.10;99.90;;;;;;5035258;28;20202;-70
2022/10/25 05:08:45;;;;;;;37.87;25.03;;;12.10;99.90;;;;;;5031782;28;20237;-70
2022/10/25 05:11:15;;;;;;;38.27;24.20;;;12.10;99.90;;;;;;5032583;28;20638;-69
2022/10/25 05:13:43;;;;;;;37.00;23.77;;;12.20;99.90;;;;;;5032567;28;20232;-70
2022/10/25 05:16:13;;;;;;;33.50;22.37;;;12.20;99.90;;;;;;5047443;28;20208;-69
2022/10/25 05:18:41;;;;;;;36.17;23.53;;;12.20;99.90;;;;;;5052452;28;20228;-69
2022/10/25 05:21:10;;;;;;;35.13;23.77;;;12.30;99.90;;;;;;5052345;28;20213;-69
2022/10/25 05:23:36;;;;;;;35.20;23.23;;;12.20;99.90;;;;;;5052013;28;20201;-68
2022/10/25 05:26:05;;;;;;;33.03;22.83;;;12.30;99.90;;;;;;5050829;28;20201;-70
2022/10/25 05:28:35;;;;;;;32.80;21.50;;;12.30;99.90;;;;;;5052371;28;20245;-70
2022/10/25 05:31:04;;;;;;;32.00;22.23;;;12.30;99.90;;;;;;5047233;28;20202;-69
2022/10/25 05:33:32;;;;;;;32.87;21.70;;;12.40;99.90;;;;;;5049807;28;20652;-70
2022/10/25 05:36:00;;;;;;;33.63;21.27;;;12.40;99.90;;;;;;5052773;28;20543;-70
2022/10/25 05:38:26;;;;;;;33.03;21.60;;;12.40;99.90;;;;;;5039856;28;20236;-69
2022/10/25 05:40:54;;;;;;;33.33;21.90;;;12.50;99.90;;;;;;5032945;28;20202;-70
2022/10/25 05:43:21;;;;;;;31.43;21.33;;;12.50;99.90;;;;;;5035140;28;20222;-68
2022/10/25 05:45:50;;;;;;;31.73;21.77;;;12.50;99.90;;;;;;5052680;28;20207;-70
2022/10/25 05:48:17;;;;;;;34.77;23.73;;;12.50;99.90;;;;;;5052894;28;20205;-71
2022/10/25 05:50:44;;;;;;;32.57;22.47;;;12.50;99.90;;;;;;5047321;28;20293;-68
2022/10/25 05:53:11;;;;;;;34.40;21.10;;;12.60;99.90;;;;;;5032487;28;20595;-69
2022/10/25 05:55:38;;;;;;;29.50;20.03;;;12.60;99.90;;;;;;5031276;28;20600;-70
2022/10/25 05:58:04;;;;;;;31.97;20.70;;;12.60;99.90;;;;;;5031206;28;20206;-68
2022/10/25 06:00:31;;;;;;;30.87;19.87;;;12.70;99.90;;;;;;5030349;28;20225;-69
2022/10/25 06:03:01;;;;;;;30.60;19.90;;;12.70;99.90;;;;;;5030710;28;20228;-69
2022/10/25 06:05:28;;;;;;;33.03;21.67;;;12.70;99.90;;;;;;5030906;28;20205;-69
2022/10/25 06:07:55;;;;;;;32.63;20.83;;;12.70;99.90;;;;;;5037715;28;20237;-69
2022/10/25 06:10:22;;;;;;;35.63;22.03;;;12.80;99.90;;;;;;5051645;28;20210;-69
2022/10/25 06:12:49;;;;;;;31.77;20.70;;;12.80;99.90;;;;;;5051903;28;20202;-68
2022/10/25 06:15:15;;;;;;;31.00;20.67;;;12.80;99.90;;;;;;5051317;28;20201;-69
2022/10/25 06:17:42;;;;;;;31.27;21.00;;;12.90;99.90;;;;;;5045906;28;20203;-69
2022/10/25 06:20:11;;;;;;;32.23;20.60;;;12.90;99.90;;;;;;5031624;28;20670;-69
2022/10/25 06:22:38;;;;;;;30.23;20.03;;;12.90;99.90;;;;;;5031261;28;20703;-68
2022/10/25 06:25:05;;;;;;;31.00;20.47;;;12.90;99.90;;;;;;5031742;28;20213;-72
2022/10/25 06:27:32;;;;;;;32.23;20.07;;;12.90;99.90;;;;;;5031008;28;20590;-69
2022/10/25 06:29:59;;;;;;;28.63;18.83;;;12.90;99.90;;;;;;5031612;28;20652;-71
2022/10/25 06:32:25;;;;;;;34.30;19.70;;;13.00;99.90;;;;;;5031565;28;20569;-70
2022/10/25 06:34:52;;;;;;;29.73;19.37;;;13.00;99.90;;;;;;5031266;28;20206;-68
2022/10/25 06:37:20;;;;;;;29.43;18.87;;;13.10;99.90;;;;;;5031820;28;20210;-70
2022/10/25 06:39:47;;;;;;;27.90;19.20;;;13.20;99.90;;;;;;5031351;28;20206;-73
2022/10/25 06:42:14;;;;;;;28.77;19.30;;;13.20;99.90;;;;;;5031306;28;20226;-70
2022/10/25 06:44:41;;;;;;;28.13;19.20;;;13.20;99.90;;;;;;5031489;28;20206;-69
2022/10/25 06:47:07;;;;;;;32.73;19.97;;;13.30;99.90;;;;;;5032323;28;20202;-70
2022/10/25 06:49:34;;;;;;;29.67;19.60;;;13.30;99.90;;;;;;5031347;28;20202;-70
2022/10/25 06:52:01;;;;;;;26.97;19.73;;;13.40;99.90;;;;;;5031547;28;20213;-69
2022/10/25 06:54:29;;;;;;;30.40;19.53;;;13.40;99.90;;;;;;5031113;28;20206;-70
2022/10/25 06:56:56;;;;;;;27.73;19.10;;;13.50;99.90;;;;;;5032152;28;20210;-70
2022/10/25 06:59:22;;;;;;;25.97;17.40;;;13.50;99.90;;;;;;5034657;28;20241;-69
2022/10/25 07:01:49;;;;;;;24.53;17.23;;;13.50;99.90;;;;;;5034498;28;20205;-69
2022/10/25 07:04:16;;;;;;;28.70;19.00;;;13.60;99.90;;;;;;5034584;28;20217;-69
2022/10/25 07:06:43;;;;;;;28.30;17.90;;;13.60;99.90;;;;;;5034167;28;20241;-68
2022/10/25 07:09:11;;;;;;;27.73;18.50;;;13.60;99.90;;;;;;5034593;28;20220;-69
2022/10/25 07:11:39;;;;;;;25.33;16.87;;;13.70;99.90;;;;;;5034935;28;20290;-69
2022/10/25 07:14:06;;;;;;;29.17;18.73;;;13.80;99.90;;;;;;5037583;28;20201;-68
2022/10/25 07:16:33;;;;;;;30.00;20.20;;;13.80;99.90;;;;;;5054555;28;20568;-68
2022/10/25 07:19:01;;;;;;;30.07;20.30;;;13.90;99.90;;;;;;5054055;28;20208;-69
2022/10/25 07:21:29;;;;;;;33.33;19.73;;;14.00;99.90;;;;;;5052409;28;20680;-70
2022/10/25 07:23:56;;;;;;;32.97;19.20;;;14.10;99.90;;;;;;5040748;28;20233;-69
2022/10/25 07:26:25;;;;;;;31.17;21.40;;;14.20;99.90;;;;;;5034207;28;20206;-70
2022/10/25 07:28:55;;;;;;;32.33;20.73;;;14.20;99.90;;;;;;5033593;28;20210;-70
2022/10/25 07:31:24;;;;;;;29.83;18.63;;;14.30;99.90;;;;;;5033185;28;20590;-69
2022/10/25 07:33:53;;;;;;;27.33;18.07;;;14.40;99.90;;;;;;5034269;28;20209;-70
2022/10/25 07:36:20;;;;;;;25.90;16.90;;;14.50;99.90;;;;;;5034097;28;20202;-68
2022/10/25 07:38:47;;;;;;;25.30;15.27;;;14.60;99.90;;;;;;5034195;28;20202;-69
2022/10/25 07:41:14;;;;;;;22.97;15.87;;;14.70;99.90;;;;;;5032670;28;20605;-70
2022/10/25 07:43:41;;;;;;;22.30;14.60;;;14.80;99.90;;;;;;5034094;28;20232;-70
2022/10/25 07:46:09;;;;;;;25.27;14.30;;;14.90;99.90;;;;;;5033554;28;20206;-69
2022/10/25 07:48:36;;;;;;;20.53;12.83;;;14.90;99.90;;;;;;5034015;28;20214;-69
2022/10/25 07:51:04;;;;;;;20.90;13.70;;;15.00;99.90;;;;;;5033452;28;20202;-70
2022/10/25 07:53:31;;;;;;;20.00;12.43;;;15.10;99.90;;;;;;5041003;28;20213;-71
2022/10/25 07:55:58;;;;;;;18.60;11.90;;;15.10;99.90;;;;;;5051797;28;20206;-68
2022/10/25 07:58:25;;;;;;;18.77;11.40;;;15.20;99.90;;;;;;5053576;28;20205;-70
2022/10/25 08:00:52;;;;;;;18.60;11.17;;;15.30;99.90;;;;;;5053774;28;20201;-70
2022/10/25 08:03:20;;;;;;;16.97;10.50;;;15.30;99.90;;;;;;5053469;28;20228;-70
2022/10/25 08:05:47;;;;;;;17.53;11.13;;;15.50;99.90;;;;;;5053484;28;20664;-70
2022/10/25 08:08:15;;;;;;;17.50;11.60;;;15.50;99.90;;;;;;5039146;28;20747;-70
2022/10/25 08:10:43;;;;;;;17.03;10.80;;;15.60;99.90;;;;;;5053216;28;20241;-69
2022/10/25 08:13:10;;;;;;;16.70;10.30;;;15.70;99.90;;;;;;5053454;28;20568;-68
2022/10/25 08:15:37;;;;;;;18.87;11.83;;;15.70;99.90;;;;;;5053476;28;20829;-69
2022/10/25 08:18:06;;;;;;;16.93;10.77;;;15.80;99.90;;;;;;5053021;28;20545;-70
2022/10/25 08:20:34;;;;;;;20.20;11.97;;;15.90;99.90;;;;;;5040978;28;20657;-69
2022/10/25 08:23:01;;;;;;;18.07;11.73;;;16.00;99.90;;;;;;5032946;28;20237;-69
2022/10/25 08:25:28;;;;;;;19.63;12.10;;;16.10;99.90;;;;;;5033226;28;20207;-70
2022/10/25 08:27:55;;;;;;;16.23;11.23;;;16.10;99.90;;;;;;5033281;28;20219;-70
2022/10/25 08:30:22;;;;;;;18.83;12.00;;;16.20;99.90;;;;;;5033399;28;20210;-69
2022/10/25 08:32:50;;;;;;;22.83;12.50;;;16.20;99.90;;;;;;5042785;28;20223;-69
2022/10/25 08:35:17;;;;;;;20.33;12.47;;;16.20;99.90;;;;;;5051914;28;20546;-69
2022/10/25 08:37:45;;;;;;;21.83;12.77;;;16.30;99.90;;;;;;5052785;28;20213;-69
2022/10/25 08:40:17;;;;;;;17.57;11.53;;;16.30;99.90;;;;;;5039507;28;20206;-69
2022/10/25 08:42:57;;;;;;;16.97;11.07;;;16.30;99.90;;;;;;5032778;28;20214;-70
2022/10/25 08:45:29;;;;;;;18.27;11.53;;;16.40;99.90;;;;;;5046568;28;20208;-69
2022/10/25 08:47:58;;;;;;;19.90;11.40;;;16.40;99.90;;;;;;5046547;28;20202;-70
2022/10/25 08:50:35;;;;;;;16.70;11.40;;;16.40;99.90;;;;;;5038080;28;20209;-67
2022/10/25 08:53:06;;;;;;;14.80;10.33;;;16.40;99.90;;;;;;5032458;28;20210;-70
2022/10/25 08:55:35;;;;;;;18.57;10.53;;;16.40;99.90;;;;;;5032720;28;20647;-70
2022/10/25 08:58:06;;;;;;;13.57;10.00;;;16.40;99.90;;;;;;5032386;28;20210;-71
2022/10/25 09:00:39;;;;;;;20.47;11.30;;;16.40;99.90;;;;;;5031881;28;20490;-70
2022/10/25 09:03:13;;;;;;;17.50;11.03;;;16.50;99.90;;;;;;5031922;28;20215;-69
2022/10/25 09:05:43;;;;;;;14.70;10.17;;;16.50;99.90;;;;;;5035497;28;20197;-69
2022/10/25 09:08:31;;;;;;;19.17;11.20;;;16.50;99.90;;;;;;5049962;28;20735;-70
2022/10/25 09:11:09;;;;;;;17.23;10.90;;;16.50;99.90;;;;;;5065243;28;20668;-69
2022/10/25 09:13:43;;;;;;;18.50;11.13;;;16.50;99.90;;;;;;5051313;28;20637;-69
2022/10/25 09:16:16;;;;;;;17.10;11.13;;;16.50;99.90;;;;;;5051063;28;20198;-70
2022/10/25 09:18:48;;;;;;;18.50;11.67;;;16.50;99.90;;;;;;5037181;28;20207;-69
2022/10/25 09:21:18;;;;;;;17.93;11.23;;;16.50;99.90;;;;;;5041385;28;20614;-68
2022/10/25 09:24:00;;;;;;;18.40;11.27;;;16.50;99.90;;;;;;5052888;28;20221;-70
2022/10/25 09:26:49;;;;;;;18.17;10.27;;;16.50;99.90;;;;;;5033194;28;20196;-71
2022/10/25 09:29:23;;;;;;;17.33;10.27;;;16.60;99.90;;;;;;5036791;28;20206;-68
2022/10/25 09:31:55;;;;;;;13.73;9.67;;;16.60;99.90;;;;;;5066652;28;20224;-69
2022/10/25 09:34:24;;;;;;;13.87;9.73;;;16.60;99.90;;;;;;5062770;28;20208;-70
2022/10/25 09:36:56;;;;;;;17.43;10.37;;;16.60;99.90;;;;;;5048929;28;20567;-69
2022/10/25 09:39:33;;;;;;;18.17;9.53;;;16.60;99.90;;;;;;5037180;28;20201;-70
2022/10/25 09:42:02;;;;;;;15.37;9.10;;;16.60;99.90;;;;;;5034744;28;20198;-69
2022/10/25 09:44:36;;;;;;;15.57;8.37;;;16.60;99.90;;;;;;5052095;28;20585;-70
2022/10/25 09:47:13;;;;;;;13.27;8.23;;;16.60;99.90;;;;;;5046907;28;20225;-70
2022/10/25 09:49:48;;;;;;;15.33;8.57;;;16.60;99.90;;;;;;5032272;28;20201;-69
2022/10/25 09:52:24;;;;;;;11.20;7.63;;;16.50;99.90;;;;;;5032162;28;20195;-69
2022/10/25 09:54:55;;;;;;;12.70;7.73;;;16.50;99.90;;;;;;5048555;28;20239;-70
2022/10/25 14:05:52;;;;;;;23.93;16.43;;;13.50;99.90;;;;;;5043961;28;20617;-68
2022/10/25 14:08:24;;;;;;;21.43;15.60;;;14.00;99.90;;;;;;5048782;28;20220;-69
2022/10/25 14:10:52;;;;;;;26.20;16.30;;;14.10;99.90;;;;;;5049448;28;20190;-69
2022/10/25 14:13:25;;;;;;;25.47;16.17;;;14.10;99.90;;;;;;5049284;28;20205;-69
2022/10/25 14:15:57;;;;;;;23.90;16.67;;;14.20;99.90;;;;;;5040731;28;20534;-68
2022/10/25 14:18:25;;;;;;;26.37;17.37;;;14.20;99.90;;;;;;5046473;28;20202;-68
2022/10/25 14:20:55;;;;;;;25.77;16.00;;;14.20;99.90;;;;;;5046461;28;20679;-69
2022/10/25 14:23:28;;;;;;;26.00;16.87;;;14.20;99.90;;;;;;5046515;28;20225;-71
2022/10/25 14:25:57;;;;;;;34.77;22.43;;;14.20;99.90;;;;;;5049110;28;20247;-68
2022/10/25 14:28:26;;;;;;;39.97;25.53;;;14.20;99.90;;;;;;5048921;28;20206;-68
2022/10/25 14:30:55;;;;;;;44.97;29.77;;;14.20;99.90;;;;;;5048842;28;20687;-70
2022/10/25 14:33:27;;;;;;;47.13;30.77;;;14.20;99.90;;;;;;5048612;28;20292;-69
2022/10/25 14:35:57;;;;;;;48.30;30.07;;;14.20;99.90;;;;;;5048032;28;20228;-69
2022/10/25 14:38:27;;;;;;;41.57;28.10;;;14.20;99.90;;;;;;5039080;28;20210;-70
2022/10/25 14:40:56;;;;;;;40.50;26.53;;;14.20;99.90;;;;;;5029050;28;20605;-71
2022/10/25 14:43:32;;;;;;;38.23;25.13;;;14.10;99.90;;;;;;5028408;28;20233;-72
2022/10/25 14:46:02;;;;;;;38.53;26.50;;;14.10;99.90;;;;;;5009423;28;20202;-71
2022/10/25 14:48:29;;;;;;;36.73;25.07;;;14.10;99.90;;;;;;5012650;28;20199;-71
2022/10/25 14:51:00;;;;;;;34.23;24.17;;;14.10;99.90;;;;;;5029441;28;20213;-69
2022/10/25 14:53:28;;;;;;;35.73;24.27;;;14.10;99.90;;;;;;5036703;28;20316;-70
2022/10/25 14:55:59;;;;;;;34.83;23.67;;;14.10;99.90;;;;;;5026103;28;20297;-68
2022/10/25 14:58:27;;;;;;;35.83;24.60;;;14.10;99.90;;;;;;5026810;28;20205;-69
2022/10/25 15:00:57;;;;;;;34.30;23.63;;;14.10;99.90;;;;;;5026976;28;20216;-69
2022/10/25 15:03:26;;;;;;;37.50;24.57;;;14.10;99.90;;;;;;5026544;28;20244;-70
2022/10/25 15:05:53;;;;;;;33.90;23.30;;;14.10;99.90;;;;;;5015268;28;20205;-69
2022/10/25 15:08:23;;;;;;;35.30;22.77;;;14.10;99.90;;;;;;5012857;28;20249;-70
2022/10/25 15:10:55;;;;;;;36.83;24.23;;;14.10;99.90;;;;;;5009581;28;20687;-70
2022/10/25 15:13:26;;;;;;;40.43;26.73;;;14.10;99.90;;;;;;5016608;28;20194;-68
2022/10/25 15:15:54;;;;;;;42.37;29.30;;;14.00;99.90;;;;;;5034852;28;20197;-69
2022/10/25 15:18:31;;;;;;;51.53;31.57;;;14.00;99.90;;;;;;5035172;28;20214;-72
2022/10/25 15:21:09;;;;;;;40.33;26.93;;;14.00;99.90;;;;;;5030530;28;20201;-68
2022/10/25 15:23:38;;;;;;;33.60;24.07;;;14.00;99.90;;;;;;5024494;28;20588;-68
2022/10/25 15:26:24;;;;;;;34.83;23.53;;;14.00;99.90;;;;;;5028740;28;20202;-67
2022/10/25 15:28:53;;;;;;;32.00;21.87;;;13.90;99.90;;;;;;5018918;28;20560;-69
2022/10/25 15:31:22;;;;;;;34.90;22.90;;;13.90;99.90;;;;;;5012010;28;20294;-68
2022/10/25 15:33:49;;;;;;;31.23;22.10;;;13.90;99.90;;;;;;5014429;28;20206;-68
2022/10/25 15:36:21;;;;;;;35.23;22.60;;;13.90;99.90;;;;;;5015072;28;20210;-70
2022/10/25 15:38:49;;;;;;;30.33;22.10;;;13.90;99.90;;;;;;5013085;28;20213;-70
2022/10/25 15:41:16;;;;;;;36.00;24.37;;;13.90;99.90;;;;;;5013094;28;20614;-69
2022/10/25 15:43:44;;;;;;;39.20;26.10;;;13.90;99.90;;;;;;5012915;28;20269;-69
2022/10/25 15:46:22;;;;;;;40.53;26.43;;;13.90;99.90;;;;;;5014585;28;20199;-70
2022/10/25 15:48:49;;;;;;;45.50;30.83;;;13.80;99.90;;;;;;5014324;28;20202;-69
2022/10/25 15:51:16;;;;;;;51.23;34.93;;;13.90;99.90;;;;;;5014018;28;20214;-69
2022/10/25 15:53:43;;;;;;;65.47;42.40;;;13.80;99.90;;;;;;5016381;28;20230;-70
2022/10/25 15:56:13;;;;;;;54.57;38.83;;;13.80;99.90;;;;;;5029074;28;20202;-68
2022/10/25 15:58:40;;;;;;;59.60;40.57;;;13.80;99.90;;;;;;5033057;28;20206;-71
2022/10/25 16:01:08;;;;;;;53.83;37.33;;;13.80;99.90;;;;;;5033875;28;20212;-69
2022/10/25 16:03:35;;;;;;;57.20;36.20;;;13.80;99.90;;;;;;5034301;28;20234;-69
2022/10/25 16:06:02;;;;;;;77.07;44.97;;;13.80;99.90;;;;;;5021006;28;20390;-69
2022/10/25 16:08:28;;;;;;;73.43;43.03;;;13.80;99.90;;;;;;5014382;28;20209;-70
2022/10/25 16:10:56;;;;;;;52.47;35.33;;;13.80;99.90;;;;;;5024883;28;20353;-69
2022/10/25 16:13:27;;;;;;;65.97;42.30;;;13.80;99.90;;;;;;5034342;28;20210;-71
2022/10/25 16:15:54;;;;;;;63.07;39.37;;;13.80;99.90;;;;;;5025510;28;20562;-72
2022/10/25 16:18:23;;;;;;;66.67;40.93;;;13.80;99.90;;;;;;5030951;28;20361;-70
2022/10/25 16:20:50;;;;;;;65.73;40.33;;;13.70;99.90;;;;;;5033306;28;20241;-70
2022/10/25 16:23:21;;;;;;;67.57;39.40;;;13.70;99.90;;;;;;5033208;28;20236;-69
2022/10/25 16:25:48;;;;;;;71.33;39.40;;;13.70;99.90;;;;;;5034138;28;20194;-71
2022/10/25 16:28:15;;;;;;;47.67;31.37;;;13.70;99.90;;;;;;5033831;28;20547;-71
2022/10/25 16:30:42;;;;;;;45.10;28.60;;;13.60;99.90;;;;;;5033341;28;20222;-70
2022/10/25 16:33:09;;;;;;;40.73;27.90;;;13.60;99.90;;;;;;5033834;28;20572;-70
2022/10/25 16:35:37;;;;;;;41.57;27.50;;;13.70;99.90;;;;;;5033276;28;20216;-69
2022/10/25 16:38:05;;;;;;;45.23;26.43;;;13.70;99.90;;;;;;5033351;28;20206;-70
2022/10/25 16:40:32;;;;;;;45.70;27.97;;;13.60;99.90;;;;;;5033620;28;20209;-69
2022/10/25 16:42:59;;;;;;;42.70;27.43;;;13.60;99.90;;;;;;5032981;28;20305;-70
2022/10/25 16:45:29;;;;;;;49.87;29.40;;;13.60;99.90;;;;;;5033027;28;20222;-71
2022/10/25 16:47:56;;;;;;;42.73;25.97;;;13.60;99.90;;;;;;5033106;28;20571;-70